createdAt,value
2017-08-07T00:01:10.815Z,2.20
2017-08-07T00:03:38.411Z,2.03
2017-08-07T00:06:05.983Z,2.10
2017-08-07T00:08:34.635Z,1.83
2017-08-07T00:11:02.218Z,2.80
2017-08-07T00:13:30.580Z,2.00
2017-08-07T00:15:58.158Z,1.90
2017-08-07T00:18:26.509Z,2.30
2017-08-07T00:20:54.086Z,2.10
2017-08-07T00:23:22.413Z,2.20
2017-08-07T00:25:50.007Z,1.95
2017-08-07T00:28:17.576Z,2.33
2017-08-07T00:30:45.935Z,2.25
2017-08-07T00:33:13.493Z,2.10
2017-08-07T00:35:41.457Z,2.50
2017-08-07T00:38:09.035Z,2.23
2017-08-07T00:40:36.635Z,2.20
2017-08-07T00:43:04.227Z,2.30
2017-08-07T00:45:31.819Z,2.15
2017-08-07T00:47:59.421Z,2.08
2017-08-07T00:50:27.004Z,1.90
2017-08-07T00:52:55.319Z,2.10
2017-08-07T00:55:23.694Z,2.00
2017-08-07T00:57:51.647Z,2.17
2017-08-07T01:00:19.212Z,1.85
2017-08-07T01:02:46.796Z,2.45
2017-08-07T01:05:15.158Z,2.62
2017-08-07T01:07:43.544Z,2.70
2017-08-07T01:10:11.891Z,1.90
2017-08-07T01:12:39.469Z,1.83
2017-08-07T01:15:07.043Z,2.15
2017-08-07T01:17:35.390Z,2.45
2017-08-07T01:20:02.985Z,2.30
2017-08-07T01:22:31.324Z,2.13
2017-08-07T01:24:59.209Z,2.05
2017-08-07T01:27:27.552Z,2.12
2017-08-07T01:29:55.141Z,2.00
2017-08-07T01:32:22.722Z,1.83
2017-08-07T01:34:51.058Z,2.17
2017-08-07T01:37:18.661Z,2.10
2017-08-07T01:39:46.262Z,2.23
2017-08-07T01:42:13.864Z,1.77
2017-08-07T01:44:42.200Z,2.10
2017-08-07T01:47:09.795Z,1.80
2017-08-07T01:49:38.139Z,2.28
2017-08-07T01:52:06.010Z,2.17
2017-08-07T01:54:33.589Z,1.73
2017-08-07T01:57:01.171Z,1.83
2017-08-07T01:59:29.526Z,1.65
2017-08-07T02:01:57.093Z,1.85
2017-08-07T02:04:24.684Z,2.05
2017-08-07T02:06:52.273Z,2.55
2017-08-07T02:09:19.868Z,1.92
2017-08-07T02:11:47.438Z,2.17
2017-08-07T02:14:16.100Z,2.20
2017-08-07T02:16:43.679Z,2.08
2017-08-07T02:19:12.004Z,2.30
2017-08-07T02:21:39.613Z,2.33
2017-08-07T02:24:07.181Z,1.70
2017-08-07T02:26:35.547Z,2.00
2017-08-07T02:29:03.131Z,2.10
2017-08-07T02:31:30.728Z,2.12
2017-08-07T02:33:58.313Z,2.12
2017-08-07T02:36:26.254Z,2.28
2017-08-07T02:38:53.826Z,2.10
2017-08-07T02:41:21.418Z,2.60
2017-08-07T02:43:49.779Z,2.22
2017-08-07T02:46:17.369Z,2.00
2017-08-07T02:48:44.958Z,2.10
2017-08-07T02:51:12.541Z,2.25
2017-08-07T02:53:40.161Z,2.62
2017-08-07T02:56:07.743Z,2.30
2017-08-07T02:58:35.631Z,2.12
2017-08-07T03:01:03.209Z,2.40
2017-08-07T03:03:31.571Z,2.10
2017-08-07T03:05:59.149Z,2.50
2017-08-07T03:08:27.488Z,2.15
2017-08-07T03:10:55.076Z,2.28
2017-08-07T03:13:22.670Z,2.28
2017-08-07T03:15:50.269Z,2.15
2017-08-07T03:18:17.870Z,1.87
2017-08-07T03:20:45.460Z,1.85
2017-08-07T03:23:13.044Z,2.47
2017-08-07T03:25:40.961Z,2.00
2017-08-07T03:28:08.551Z,2.03
2017-08-07T03:30:36.905Z,2.10
2017-08-07T03:33:04.510Z,1.85
2017-08-07T03:35:32.100Z,2.10
2017-08-07T03:37:59.689Z,2.47
2017-08-07T03:40:27.266Z,2.20
2017-08-07T03:42:55.657Z,2.17
2017-08-07T03:45:23.284Z,1.90
2017-08-07T03:47:51.151Z,2.50
2017-08-07T03:50:18.713Z,2.00
2017-08-07T03:52:46.294Z,2.05
2017-08-07T03:55:14.631Z,2.12
2017-08-07T03:57:42.189Z,2.08
2017-08-07T04:00:09.780Z,2.28
2017-08-07T04:02:38.119Z,2.25
2017-08-07T04:05:05.704Z,2.00
2017-08-07T04:07:33.266Z,1.80
2017-08-07T04:10:01.111Z,2.10
2017-08-07T04:12:28.679Z,1.98
2017-08-07T04:14:56.268Z,2.40
2017-08-07T04:17:24.608Z,2.03
2017-08-07T04:19:52.193Z,2.30
2017-08-07T04:22:20.557Z,2.12
2017-08-07T04:24:48.126Z,2.58
2017-08-07T04:27:15.702Z,2.55
2017-08-07T04:29:44.038Z,2.40
2017-08-07T04:32:11.895Z,2.58
2017-08-07T04:34:39.476Z,2.92
2017-08-07T04:37:07.063Z,2.12
2017-08-07T04:39:34.672Z,2.55
2017-08-07T04:42:02.258Z,2.53
2017-08-07T04:44:29.848Z,2.87
2017-08-07T04:46:57.426Z,2.95
2017-08-07T04:49:25.021Z,2.70
2017-08-07T04:51:52.590Z,2.85
2017-08-07T04:54:20.442Z,3.55
2017-08-07T04:56:48.024Z,3.58
2017-08-07T04:59:16.385Z,3.17
2017-08-07T05:01:43.977Z,3.45
2017-08-07T05:04:12.320Z,3.12
2017-08-07T05:06:39.918Z,3.00
2017-08-07T05:09:08.271Z,3.72
2017-08-07T05:11:36.142Z,3.30
2017-08-07T05:14:04.482Z,4.10
2017-08-07T05:16:32.069Z,3.40
2017-08-07T05:18:59.664Z,3.22
2017-08-07T05:21:27.242Z,4.82
2017-08-07T05:23:54.825Z,3.50
2017-08-07T05:26:22.438Z,3.33
2017-08-07T05:28:50.035Z,3.53
2017-08-07T05:31:17.607Z,3.97
2017-08-07T05:33:45.474Z,4.07
2017-08-07T05:36:13.051Z,3.62
2017-08-07T05:38:40.645Z,4.18
2017-08-07T05:41:08.240Z,3.80
2017-08-07T05:43:35.832Z,4.53
2017-08-07T05:46:03.427Z,4.30
2017-08-07T05:48:31.006Z,4.53
2017-08-07T05:50:58.603Z,4.55
2017-08-07T05:53:26.178Z,3.80
2017-08-07T05:55:54.831Z,4.32
2017-08-07T05:58:22.425Z,4.53
2017-08-07T06:00:50.769Z,4.10
2017-08-07T06:03:18.360Z,4.00
2017-08-07T06:05:46.708Z,4.30
2017-08-07T06:08:14.342Z,3.97
2017-08-07T06:10:41.924Z,4.30
2017-08-07T06:13:09.893Z,4.03
2017-08-07T06:15:37.489Z,3.60
2017-08-07T06:18:05.814Z,3.87
2017-08-07T06:20:33.391Z,3.60
2017-08-07T06:23:01.174Z,3.80
2017-08-07T06:25:28.771Z,3.80
2017-08-07T06:27:56.346Z,3.20
2017-08-07T06:30:24.220Z,3.40
2017-08-07T06:32:51.787Z,3.37
2017-08-07T06:35:19.350Z,3.23
2017-08-07T06:37:46.965Z,2.83
2017-08-07T06:40:20.321Z,3.30
2017-08-07T06:42:47.917Z,3.03
2017-08-07T06:45:16.252Z,2.70
2017-08-07T06:47:43.840Z,2.90
2017-08-07T06:50:12.179Z,3.07
2017-08-07T06:52:40.081Z,2.10
2017-08-07T06:55:08.418Z,2.63
2017-08-07T06:57:35.996Z,2.10
2017-08-07T07:00:03.599Z,2.40
2017-08-07T07:02:31.186Z,2.10
2017-08-07T07:04:58.785Z,2.37
2017-08-07T07:07:26.352Z,2.00
2017-08-07T07:09:53.918Z,2.40
2017-08-07T07:12:22.260Z,2.33
2017-08-07T07:14:50.242Z,2.47
2017-08-07T07:17:17.840Z,2.23
2017-08-07T07:19:45.419Z,2.63
2017-08-07T07:22:12.989Z,2.17
2017-08-07T07:24:40.562Z,3.10
2017-08-07T07:27:08.153Z,2.60
2017-08-07T07:29:36.500Z,2.00
2017-08-07T07:32:04.078Z,2.90
2017-08-07T07:34:32.430Z,2.70
2017-08-07T07:37:00.370Z,2.43
2017-08-07T07:39:27.935Z,2.60
2017-08-07T07:41:55.524Z,3.03
2017-08-07T07:44:23.120Z,3.00
2017-08-07T07:46:51.481Z,2.43
2017-08-07T07:49:19.068Z,2.43
2017-08-07T07:51:46.697Z,2.90
2017-08-07T07:54:14.271Z,2.70
2017-08-07T07:56:41.859Z,2.53
2017-08-07T07:59:09.435Z,2.33
2017-08-07T08:01:37.034Z,2.70
2017-08-07T08:04:04.600Z,2.10
2017-08-07T08:06:32.958Z,3.47
2017-08-07T08:09:00.537Z,2.57
2017-08-07T08:11:28.876Z,3.00
2017-08-07T08:13:56.456Z,2.70
2017-08-07T08:16:24.061Z,2.90
2017-08-07T08:18:51.640Z,3.50
2017-08-07T08:21:20.205Z,2.87
2017-08-07T08:23:47.781Z,3.03
2017-08-07T08:26:15.360Z,2.97
2017-08-07T08:28:42.949Z,2.80
2017-08-07T08:31:10.505Z,3.10
2017-08-07T08:33:38.089Z,3.47
2017-08-07T08:36:05.668Z,2.90
2017-08-07T08:38:33.267Z,2.87
2017-08-07T08:41:00.829Z,2.70
2017-08-07T08:43:28.686Z,3.57
2017-08-07T08:45:56.243Z,3.30
2017-08-07T08:48:23.827Z,3.17
2017-08-07T08:50:52.173Z,3.03
2017-08-07T08:53:19.767Z,3.10
2017-08-07T08:55:48.110Z,3.60
2017-08-07T08:58:15.668Z,3.00
2017-08-07T09:00:43.257Z,3.07
2017-08-07T09:03:10.814Z,3.67
2017-08-07T09:05:38.843Z,3.30
2017-08-07T09:08:06.405Z,3.03
2017-08-07T09:10:33.991Z,2.40
2017-08-07T09:13:01.580Z,3.20
2017-08-07T09:15:29.932Z,2.50
2017-08-07T09:17:57.516Z,2.77
2017-08-07T09:20:25.867Z,2.27
2017-08-07T09:22:53.453Z,2.60
2017-08-07T09:25:21.807Z,2.50
2017-08-07T09:27:49.773Z,2.87
2017-08-07T09:30:17.361Z,3.00
2017-08-07T09:32:45.721Z,2.60
2017-08-07T09:35:13.306Z,3.00
2017-08-07T09:37:40.861Z,2.73
2017-08-07T09:40:08.450Z,2.60
2017-08-07T09:42:36.023Z,2.73
2017-08-07T09:45:03.631Z,3.03
2017-08-07T09:47:31.968Z,3.20
2017-08-07T09:49:59.840Z,2.87
2017-08-07T09:52:27.421Z,2.90
2017-08-07T09:54:55.745Z,3.37
2017-08-07T09:57:23.315Z,2.90
2017-08-07T09:59:50.894Z,3.10
2017-08-07T10:02:19.245Z,2.60
2017-08-07T10:04:46.805Z,3.40
2017-08-07T10:07:14.384Z,2.97
2017-08-07T10:09:41.950Z,2.57
2017-08-07T10:12:09.824Z,2.70
2017-08-07T10:14:37.410Z,3.07
2017-08-07T10:17:05.741Z,2.53
2017-08-07T10:19:33.344Z,3.53
2017-08-07T10:22:01.673Z,2.77
2017-08-07T10:24:29.288Z,3.27
2017-08-07T10:26:56.857Z,3.50
2017-08-07T10:29:24.523Z,3.13
2017-08-07T10:31:52.079Z,2.67
2017-08-07T10:34:19.652Z,3.13
2017-08-07T10:36:47.215Z,3.80
2017-08-07T10:39:15.086Z,3.17
2017-08-07T10:41:42.681Z,3.13
2017-08-07T10:44:10.254Z,2.70
2017-08-07T10:46:38.629Z,3.50
2017-08-07T10:49:06.969Z,3.20
2017-08-07T10:51:34.573Z,3.50
2017-08-07T10:54:02.895Z,3.73
2017-08-07T10:56:30.485Z,3.70
2017-08-07T10:58:58.065Z,3.73
2017-08-07T11:01:26.432Z,4.53
2017-08-07T11:03:54.002Z,4.07
2017-08-07T11:06:22.627Z,4.37
2017-08-07T11:08:50.195Z,4.30
2017-08-07T11:11:17.795Z,3.60
2017-08-07T11:13:46.140Z,3.80
2017-08-07T11:16:13.712Z,4.60
2017-08-07T11:18:41.298Z,4.13
2017-08-07T11:21:09.622Z,4.23
2017-08-07T11:23:37.249Z,4.00
2017-08-07T11:26:04.826Z,4.17
2017-08-07T11:28:32.668Z,3.87
2017-08-07T11:31:00.243Z,3.97
2017-08-07T11:33:27.804Z,3.90
2017-08-07T11:35:55.389Z,3.93
2017-08-07T11:38:22.949Z,3.57
2017-08-07T11:40:50.515Z,3.53
2017-08-07T11:43:18.095Z,3.13
2017-08-07T11:45:45.668Z,3.10
2017-08-07T11:48:14.130Z,2.90
2017-08-07T11:50:42.005Z,3.50
2017-08-07T11:53:09.611Z,3.57
2017-08-07T11:55:37.168Z,2.90
2017-08-07T11:58:04.810Z,3.93
2017-08-07T12:00:32.408Z,3.10
2017-08-07T12:03:00.224Z,3.10
2017-08-07T12:05:27.804Z,2.60
2017-08-07T12:07:55.393Z,3.10
2017-08-07T12:10:22.969Z,3.00
2017-08-07T12:12:50.583Z,2.50
2017-08-07T12:15:18.169Z,2.60
2017-08-07T12:17:46.012Z,2.00
2017-08-07T12:20:13.600Z,2.60
2017-08-07T12:22:41.185Z,2.10
2017-08-07T12:25:09.543Z,2.23
2017-08-07T12:27:37.141Z,2.30
2017-08-07T12:30:05.509Z,2.63
2017-08-07T12:32:33.856Z,2.37
2017-08-07T12:35:01.445Z,2.23
2017-08-07T12:37:29.793Z,2.50
2017-08-07T12:39:57.478Z,2.10
2017-08-07T12:42:25.085Z,2.03
2017-08-07T12:44:52.649Z,2.30
2017-08-07T12:47:20.225Z,2.30
2017-08-07T12:49:47.801Z,2.40
2017-08-07T12:52:15.412Z,2.10
2017-08-07T12:54:42.985Z,2.50
2017-08-07T12:57:10.612Z,2.30
2017-08-07T12:59:38.984Z,2.03
2017-08-07T13:02:07.641Z,2.80
2017-08-07T13:04:35.216Z,2.33
2017-08-07T13:07:03.551Z,2.73
2017-08-07T13:09:31.143Z,2.17
2017-08-07T13:11:58.755Z,2.33
2017-08-07T13:14:26.334Z,2.83
2017-08-07T13:16:53.920Z,2.43
2017-08-07T13:19:21.518Z,2.33
2017-08-07T13:21:49.103Z,2.60
2017-08-07T13:24:16.711Z,3.00
2017-08-07T13:26:45.060Z,2.07
2017-08-07T13:29:12.926Z,2.40
2017-08-07T13:31:40.519Z,2.80
2017-08-07T13:34:08.097Z,2.23
2017-08-07T13:36:35.681Z,2.23
2017-08-07T13:39:03.238Z,2.40
2017-08-07T13:41:30.811Z,2.20
2017-08-07T13:43:58.361Z,2.10
2017-08-07T13:46:25.931Z,2.30
2017-08-07T13:48:53.493Z,2.63
2017-08-07T13:51:21.354Z,2.17
2017-08-07T13:53:48.946Z,2.00
2017-08-07T13:56:16.519Z,2.50
2017-08-07T13:58:44.845Z,2.60
2017-08-07T14:01:12.421Z,2.43
2017-08-07T14:03:39.999Z,2.30
2017-08-07T14:06:07.580Z,2.50
2017-08-07T14:08:35.166Z,2.97
2017-08-07T14:11:02.745Z,2.80
2017-08-07T14:13:30.605Z,2.67
2017-08-07T14:15:58.190Z,2.60
2017-08-07T14:18:25.752Z,2.80
2017-08-07T14:20:53.352Z,2.53
2017-08-07T14:23:20.948Z,2.60
2017-08-07T14:25:48.523Z,2.60
2017-08-07T14:28:16.100Z,2.67
2017-08-07T14:30:44.445Z,3.17
2017-08-07T14:33:12.019Z,2.53
2017-08-07T14:35:39.609Z,2.37
2017-08-07T14:38:07.200Z,2.73
2017-08-07T14:40:34.797Z,2.63
2017-08-07T14:43:03.245Z,2.50
2017-08-07T14:45:30.835Z,2.70
2017-08-07T14:47:58.458Z,2.67
2017-08-07T14:50:26.040Z,2.60
2017-08-07T14:52:53.952Z,2.47
2017-08-07T14:55:22.300Z,2.53
2017-08-07T14:57:49.891Z,2.80
2017-08-07T15:00:18.215Z,2.33
2017-08-07T15:02:45.779Z,2.70
2017-08-07T15:05:13.329Z,2.50
2017-08-07T15:07:40.908Z,2.63
2017-08-07T15:10:08.497Z,2.73
2017-08-07T15:12:36.858Z,2.60
2017-08-07T15:15:05.225Z,3.20
2017-08-07T15:17:32.777Z,3.23
2017-08-07T15:20:00.358Z,2.80
2017-08-07T15:22:28.689Z,2.73
2017-08-07T15:24:56.272Z,3.17
2017-08-07T15:27:23.845Z,2.60
2017-08-07T15:29:51.787Z,2.60
2017-08-07T15:32:19.359Z,2.40
2017-08-07T15:34:46.943Z,2.63
2017-08-07T15:37:15.409Z,2.70
2017-08-07T15:39:43.010Z,2.57
2017-08-07T15:42:10.597Z,2.53
2017-08-07T15:44:38.196Z,2.70
2017-08-07T15:47:06.539Z,2.40
2017-08-07T15:49:34.096Z,2.20
2017-08-07T15:52:01.674Z,3.07
2017-08-07T15:54:29.239Z,2.90
2017-08-07T15:56:57.187Z,2.47
2017-08-07T15:59:24.761Z,2.97
2017-08-07T16:01:52.336Z,2.73
2017-08-07T16:04:20.704Z,3.00
2017-08-07T16:06:48.263Z,3.07
2017-08-07T16:09:15.844Z,2.23
2017-08-07T16:11:44.184Z,2.60
2017-08-07T16:14:12.132Z,2.80
2017-08-07T16:16:39.711Z,2.73
2017-08-07T16:19:07.270Z,2.80
2017-08-07T16:21:34.849Z,3.20
2017-08-07T16:24:02.404Z,3.27
2017-08-07T16:26:29.980Z,2.67
2017-08-07T16:28:57.540Z,2.67
2017-08-07T16:31:25.137Z,2.90
2017-08-07T16:33:52.699Z,2.30
2017-08-07T16:36:20.678Z,3.40
2017-08-07T16:38:48.269Z,2.80
2017-08-07T16:41:15.904Z,2.80
2017-08-07T16:43:43.514Z,2.50
2017-08-07T16:46:11.125Z,2.50
2017-08-07T16:48:38.708Z,3.20
2017-08-07T16:51:07.061Z,2.67
2017-08-07T16:53:34.696Z,2.43
2017-08-07T16:56:02.252Z,2.70
2017-08-07T16:58:30.144Z,3.00
2017-08-07T17:00:57.705Z,3.00
2017-08-07T17:03:25.275Z,3.07
2017-08-07T17:05:52.863Z,3.10
2017-08-07T17:08:21.226Z,2.10
2017-08-07T17:10:49.575Z,3.20
2017-08-07T17:13:17.168Z,2.90
2017-08-07T17:15:45.777Z,3.20
2017-08-07T17:18:13.335Z,2.80
2017-08-07T17:20:40.929Z,2.63
2017-08-07T17:23:08.512Z,2.90
2017-08-07T17:25:36.065Z,2.60
2017-08-07T17:28:03.743Z,2.90
2017-08-07T17:30:31.332Z,3.00
2017-08-07T17:32:59.143Z,3.07
2017-08-07T17:35:26.743Z,2.73
2017-08-07T17:37:54.658Z,2.67
2017-08-07T17:40:22.237Z,3.40
2017-08-07T17:42:49.807Z,3.60
2017-08-07T17:45:17.392Z,3.27
2017-08-07T17:47:44.965Z,3.60
2017-08-07T17:50:12.556Z,3.20
2017-08-07T17:52:40.238Z,4.13
2017-08-07T17:55:07.825Z,3.33
2017-08-07T17:57:35.389Z,3.30
2017-08-07T18:00:03.311Z,3.30
2017-08-07T18:02:30.890Z,2.77
2017-08-07T18:04:58.462Z,2.93
2017-08-07T18:07:26.829Z,3.57
2017-08-07T18:09:54.401Z,3.87
2017-08-07T18:12:22.747Z,3.50
2017-08-07T18:14:50.315Z,3.30
2017-08-07T18:17:17.931Z,3.10
2017-08-07T18:19:45.491Z,3.33
2017-08-07T18:22:13.070Z,3.20
2017-08-07T18:24:40.714Z,3.07
2017-08-07T18:27:08.579Z,4.00
2017-08-07T18:29:36.151Z,3.87
2017-08-07T18:32:03.724Z,3.37
2017-08-07T18:34:31.325Z,4.20
2017-08-07T18:36:58.909Z,3.67
2017-08-07T18:39:26.535Z,3.40
2017-08-07T18:41:54.880Z,3.03
2017-08-07T18:44:22.478Z,4.00
2017-08-07T18:46:50.089Z,3.30
2017-08-07T18:49:17.905Z,3.10
2017-08-07T18:51:45.497Z,3.70
2017-08-07T18:54:13.080Z,3.43
2017-08-07T18:56:40.719Z,3.30
2017-08-07T18:59:08.290Z,4.00
2017-08-07T19:01:35.868Z,4.10
2017-08-07T19:04:03.439Z,3.83
2017-08-07T19:06:31.023Z,3.63
2017-08-07T19:08:58.616Z,3.30
2017-08-07T19:11:26.202Z,3.50
2017-08-07T19:13:53.826Z,3.50
2017-08-07T19:16:21.703Z,2.90
2017-08-07T19:18:49.266Z,3.67
2017-08-07T19:21:16.843Z,3.67
2017-08-07T19:23:44.422Z,3.33
2017-08-07T19:26:12.785Z,3.70
2017-08-07T19:28:40.388Z,3.97
2017-08-07T19:31:07.989Z,3.50
2017-08-07T19:33:35.574Z,3.27
2017-08-07T19:36:03.144Z,3.53
2017-08-07T19:38:31.489Z,3.77
2017-08-07T19:40:59.066Z,4.03
2017-08-07T19:43:26.915Z,3.70
2017-08-07T19:45:54.477Z,3.57
2017-08-07T19:48:22.084Z,3.50
2017-08-07T19:50:49.693Z,4.47
2017-08-07T19:53:17.258Z,3.53
2017-08-07T19:55:44.861Z,4.00
2017-08-07T19:58:12.446Z,3.43
2017-08-07T20:00:40.036Z,3.73
2017-08-07T20:03:07.627Z,3.60
2017-08-07T20:05:35.568Z,3.50
2017-08-07T20:08:03.142Z,3.47
2017-08-07T20:10:31.499Z,3.67
2017-08-07T20:12:59.191Z,3.33
2017-08-07T20:15:27.525Z,4.13
2017-08-07T20:17:55.128Z,4.07
2017-08-07T20:20:23.455Z,3.30
2017-08-07T20:22:51.062Z,3.77
2017-08-07T20:25:19.410Z,3.60
2017-08-07T20:27:47.384Z,4.13
2017-08-07T20:30:14.963Z,4.00
2017-08-07T20:32:43.412Z,3.50
2017-08-07T20:35:11.014Z,3.90
2017-08-07T20:37:38.597Z,3.77
2017-08-07T20:40:06.179Z,4.43
2017-08-07T20:42:33.797Z,3.80
2017-08-07T20:45:01.488Z,3.90
2017-08-07T20:47:29.086Z,4.30
2017-08-07T20:49:57.066Z,3.77
2017-08-07T20:52:25.418Z,4.03
2017-08-07T20:54:53.022Z,4.50
2017-08-07T20:57:20.595Z,4.23
2017-08-07T20:59:48.164Z,4.10
2017-08-07T21:02:15.769Z,4.17
2017-08-07T21:04:43.345Z,4.20
2017-08-07T21:07:11.693Z,4.20
2017-08-07T21:09:39.307Z,4.37
2017-08-07T21:12:06.985Z,4.00
2017-08-07T21:14:34.539Z,4.37
2017-08-07T21:17:02.452Z,4.10
2017-08-07T21:19:30.043Z,3.70
2017-08-07T21:21:57.621Z,4.70
2017-08-07T21:24:25.221Z,4.83
2017-08-07T21:26:52.788Z,4.30
2017-08-07T21:29:20.377Z,4.47
2017-08-07T21:31:47.937Z,4.20
2017-08-07T21:34:15.814Z,4.33
2017-08-07T21:36:43.386Z,3.80
2017-08-07T21:39:10.954Z,4.43
2017-08-07T21:41:38.548Z,5.03
2017-08-07T21:44:06.131Z,4.47
2017-08-07T21:46:33.710Z,4.90
2017-08-07T21:49:01.288Z,4.70
2017-08-07T21:51:29.146Z,5.60
2017-08-07T21:53:56.720Z,4.80
2017-08-07T21:56:24.295Z,5.10
2017-08-07T21:58:51.897Z,4.87
2017-08-07T22:01:19.531Z,5.40
2017-08-07T22:03:47.136Z,4.73
2017-08-07T22:06:14.727Z,4.70
2017-08-07T22:08:42.322Z,4.83
2017-08-07T22:11:09.918Z,5.23
2017-08-07T22:13:37.765Z,4.57
2017-08-07T22:16:05.341Z,4.67
2017-08-07T22:18:32.905Z,5.43
2017-08-07T22:21:00.478Z,4.60
2017-08-07T22:23:28.049Z,5.00
2017-08-07T22:25:55.642Z,4.77
2017-08-07T22:28:23.215Z,4.60
2017-08-07T22:30:50.846Z,5.00
2017-08-07T22:33:18.414Z,4.80
2017-08-07T22:35:47.042Z,4.80
2017-08-07T22:38:14.612Z,5.10
2017-08-07T22:40:42.259Z,4.60
2017-08-07T22:43:09.835Z,4.90
2017-08-07T22:45:37.398Z,4.60
2017-08-07T22:48:04.967Z,4.80
2017-08-07T22:50:32.550Z,5.33
2017-08-07T22:53:01.182Z,5.30
2017-08-07T22:55:28.740Z,5.20
2017-08-07T22:57:56.339Z,6.37
2017-08-07T23:00:23.905Z,5.30
2017-08-07T23:02:51.467Z,5.27
2017-08-07T23:05:19.818Z,4.63
2017-08-07T23:07:47.414Z,4.57
2017-08-07T23:10:16.066Z,4.90
2017-08-07T23:12:43.648Z,5.13
2017-08-07T23:15:11.208Z,5.20
2017-08-07T23:17:38.782Z,5.63
2017-08-07T23:20:06.347Z,5.30
2017-08-07T23:22:33.925Z,5.73
2017-08-07T23:25:01.505Z,5.10
2017-08-07T23:27:29.079Z,5.50
2017-08-07T23:29:56.781Z,5.90
2017-08-07T23:32:24.385Z,5.57
2017-08-07T23:34:51.966Z,5.60
2017-08-07T23:37:19.553Z,6.03
2017-08-07T23:39:47.885Z,5.70
2017-08-07T23:42:15.461Z,5.90
2017-08-07T23:44:43.049Z,5.90
2017-08-07T23:47:11.388Z,6.30
2017-08-07T23:49:38.983Z,5.47
2017-08-07T23:52:06.595Z,5.67
2017-08-07T23:54:34.209Z,6.10
2017-08-07T23:57:01.773Z,6.00
2017-08-07T23:59:29.622Z,6.10
